sensor_id;sensor_type;location;lat;lon;timestamp;pressure;altitude;pressure_sealevel;temperature;humidity
6938;BME280;40040;42.706;23.372;2023-05-23T00:01:09;147194.53;;;12.26;100.00
6938;BME280;40040;42.706;23.372;2023-05-23T00:03:39;147189.56;;;12.24;100.00
6938;BME280;40040;42.706;23.372;2023-05-23T00:06:06;147189.56;;;12.24;100.00
6938;BME280;40040;42.706;23.372;2023-05-23T00:08:33;147182.16;;;12.21;100.00
6938;BME280;40040;42.706;23.372;2023-05-23T00:11:02;147168.56;;;12.15;100.00
6938;BME280;40040;42.706;23.372;2023-05-23T00:13:29;147178.47;;;12.19;100.00
6938;BME280;40040;42.706;23.372;2023-05-23T00:15:59;147135.22;;;12.02;100.00
6938;BME280;40040;42.706;23.372;2023-05-23T00:18:26;147142.63;;;12.05;100.00
6938;BME280;40040;42.706;23.372;2023-05-23T00:20:54;147131.53;;;12.00;100.00
6938;BME280;40040;42.706;23.372;2023-05-23T00:23:23;147113.00;;;11.93;100.00
6938;BME280;40040;42.706;23.372;2023-05-23T00:25:50;147157.47;;;12.11;100.00
6938;BME280;40040;42.706;23.372;2023-05-23T00:28:20;147150.09;;;12.08;100.00
6938;BME280;40040;42.706;23.372;2023-05-23T00:30:47;147136.47;;;12.02;100.00
6938;BME280;40040;42.706;23.372;2023-05-23T00:33:15;147142.63;;;12.05;100.00
6938;BME280;40040;42.706;23.372;2023-05-23T00:35:41;147133.97;;;12.01;100.00
6938;BME280;40040;42.706;23.372;2023-05-23T00:38:08;147120.44;;;11.96;100.00
6938;BME280;40040;42.706;23.372;2023-05-23T00:40:36;147125.34;;;11.98;100.00
6938;BME280;40040;42.706;23.372;2023-05-23T00:43:02;147095.69;;;11.86;100.00
6938;BME280;40040;42.706;23.372;2023-05-23T00:45:31;147110.53;;;11.92;100.00
6938;BME280;40040;42.706;23.372;2023-05-23T00:47:58;147085.84;;;11.82;100.00
6938;BME280;40040;42.706;23.372;2023-05-23T00:50:25;147103.16;;;11.89;100.00
6938;BME280;40040;42.706;23.372;2023-05-23T00:52:54;147105.59;;;11.90;100.00
6938;BME280;40040;42.706;23.372;2023-05-23T00:55:22;147115.50;;;11.94;100.00
6938;BME280;40040;42.706;23.372;2023-05-23T00:57:49;147111.78;;;11.92;100.00
6938;BME280;40040;42.706;23.372;2023-05-23T01:00:16;147063.63;;;11.73;100.00
6938;BME280;40040;42.706;23.372;2023-05-23T01:02:46;147117.94;;;11.95;100.00
6938;BME280;40040;42.706;23.372;2023-05-23T01:05:16;147098.19;;;11.87;100.00
6938;BME280;40040;42.706;23.372;2023-05-23T01:07:43;147073.50;;;11.77;100.00
6938;BME280;40040;42.706;23.372;2023-05-23T01:10:12;147066.06;;;11.74;100.00
6938;BME280;40040;42.706;23.372;2023-05-23T01:12:46;147080.91;;;11.80;100.00
6938;BME280;40040;42.706;23.372;2023-05-23T01:15:18;147082.09;;;11.80;100.00
6938;BME280;40040;42.706;23.372;2023-05-23T01:17:50;147088.31;;;11.83;100.00
6938;BME280;40040;42.706;23.372;2023-05-23T01:20:21;147093.25;;;11.85;100.00
6938;BME280;40040;42.706;23.372;2023-05-23T01:25:51;147098.19;;;11.87;100.00
6938;BME280;40040;42.706;23.372;2023-05-23T01:28:27;147090.75;;;11.84;100.00
6938;BME280;40040;42.706;23.372;2023-05-23T01:30:57;147068.56;;;11.75;100.00
6938;BME280;40040;42.706;23.372;2023-05-23T01:33:24;147040.09;;;11.63;100.00
6938;BME280;40040;42.706;23.372;2023-05-23T01:35:51;147066.06;;;11.74;100.00
6938;BME280;40040;42.706;23.372;2023-05-23T01:38:18;147078.41;;;11.79;100.00
6938;BME280;40040;42.706;23.372;2023-05-23T01:40:45;147073.50;;;11.77;100.00
6938;BME280;40040;42.706;23.372;2023-05-23T01:43:12;147046.34;;;11.66;100.00
6938;BME280;40040;42.706;23.372;2023-05-23T01:45:41;147051.28;;;11.68;100.00
6938;BME280;40040;42.706;23.372;2023-05-23T01:48:08;147031.44;;;11.60;100.00
6938;BME280;40040;42.706;23.372;2023-05-23T01:50:36;147017.84;;;11.54;100.00
6938;BME280;40040;42.706;23.372;2023-05-23T01:53:04;147031.44;;;11.60;100.00
6938;BME280;40040;42.706;23.372;2023-05-23T01:55:31;147030.25;;;11.59;100.00
6938;BME280;40040;42.706;23.372;2023-05-23T01:57:58;147029.00;;;11.59;100.00
6938;BME280;40040;42.706;23.372;2023-05-23T02:00:26;146989.47;;;11.43;100.00
6938;BME280;40040;42.706;23.372;2023-05-23T02:02:54;147006.75;;;11.50;100.00
6938;BME280;40040;42.706;23.372;2023-05-23T02:05:21;146979.59;;;11.38;100.00
6938;BME280;40040;42.706;23.372;2023-05-23T02:07:47;146898.13;;;11.05;100.00
6938;BME280;40040;42.706;23.372;2023-05-23T02:10:14;146949.97;;;11.26;100.00
6938;BME280;40040;42.706;23.372;2023-05-23T02:12:41;146942.56;;;11.23;100.00
6938;BME280;40040;42.706;23.372;2023-05-23T02:15:08;146895.66;;;11.04;100.00
6938;BME280;40040;42.706;23.372;2023-05-23T02:17:35;146908.00;;;11.09;100.00
6938;BME280;40040;42.706;23.372;2023-05-23T02:20:06;146895.66;;;11.04;100.00
6938;BME280;40040;42.706;23.372;2023-05-23T02:22:33;146885.78;;;11.00;100.00
6938;BME280;40040;42.706;23.372;2023-05-23T02:25:00;146857.41;;;10.89;100.00
6938;BME280;40040;42.706;23.372;2023-05-23T02:27:26;146837.69;;;10.81;100.00
6938;BME280;40040;42.706;23.372;2023-05-23T02:29:54;146848.78;;;10.85;100.00
6938;BME280;40040;42.706;23.372;2023-05-23T02:32:20;146838.88;;;10.81;100.00
6938;BME280;40040;42.706;23.372;2023-05-23T02:34:47;146857.41;;;10.89;100.00
6938;BME280;40040;42.706;23.372;2023-05-23T02:37:16;146862.34;;;10.91;100.00
6938;BME280;40040;42.706;23.372;2023-05-23T02:39:42;146847.53;;;10.85;100.00
6938;BME280;40040;42.706;23.372;2023-05-23T02:42:09;146871.00;;;10.94;100.00
6938;BME280;40040;42.706;23.372;2023-05-23T02:44:36;146893.22;;;11.03;100.00
6938;BME280;40040;42.706;23.372;2023-05-23T02:47:03;146899.38;;;11.06;100.00
6938;BME280;40040;42.706;23.372;2023-05-23T02:49:30;146885.78;;;11.00;100.00
6938;BME280;40040;42.706;23.372;2023-05-23T02:51:57;146894.41;;;11.04;100.00
6938;BME280;40040;42.706;23.372;2023-05-23T02:54:25;146903.06;;;11.07;100.00
6938;BME280;40040;42.706;23.372;2023-05-23T02:56:52;146893.22;;;11.03;100.00
6938;BME280;40040;42.706;23.372;2023-05-23T02:59:19;146883.34;;;10.99;100.00
6938;BME280;40040;42.706;23.372;2023-05-23T03:01:46;146903.06;;;11.07;100.00
6938;BME280;40040;42.706;23.372;2023-05-23T03:04:13;146882.09;;;10.99;100.00
6938;BME280;40040;42.706;23.372;2023-05-23T03:06:40;146885.78;;;11.00;100.00
6938;BME280;40040;42.706;23.372;2023-05-23T03:09:08;146888.28;;;11.01;100.00
6938;BME280;40040;42.706;23.372;2023-05-23T03:11:36;146875.94;;;10.96;100.00
6938;BME280;40040;42.706;23.372;2023-05-23T03:14:03;146875.94;;;10.96;100.00
6938;BME280;40040;42.706;23.372;2023-05-23T03:16:30;146864.81;;;10.92;100.00
6938;BME280;40040;42.706;23.372;2023-05-23T03:18:57;146872.19;;;10.95;100.00
6938;BME280;40040;42.706;23.372;2023-05-23T03:21:25;146875.94;;;10.96;100.00
6938;BME280;40040;42.706;23.372;2023-05-23T03:23:51;146864.81;;;10.92;100.00
6938;BME280;40040;42.706;23.372;2023-05-23T03:26:18;146875.94;;;10.96;100.00
6938;BME280;40040;42.706;23.372;2023-05-23T03:28:48;146829.06;;;10.77;100.00
6938;BME280;40040;42.706;23.372;2023-05-23T03:31:15;146845.09;;;10.84;100.00
6938;BME280;40040;42.706;23.372;2023-05-23T03:33:42;146851.22;;;10.86;100.00
6938;BME280;40040;42.706;23.372;2023-05-23T03:36:09;146835.19;;;10.80;100.00
6938;BME280;40040;42.706;23.372;2023-05-23T03:38:35;146880.84;;;10.98;100.00
6938;BME280;40040;42.706;23.372;2023-05-23T03:41:02;146866.06;;;10.92;100.00
6938;BME280;40040;42.706;23.372;2023-05-23T03:43:29;146859.88;;;10.90;100.00
6938;BME280;40040;42.706;23.372;2023-05-23T03:45:57;146806.84;;;10.68;100.00
6938;BME280;40040;42.706;23.372;2023-05-23T03:48:24;146811.78;;;10.70;100.00
6938;BME280;40040;42.706;23.372;2023-05-23T03:50:51;146780.91;;;10.58;100.00
6938;BME280;40040;42.706;23.372;2023-05-23T03:53:17;146787.06;;;10.60;100.00
6938;BME280;40040;42.706;23.372;2023-05-23T03:55:44;146798.19;;;10.65;100.00
6938;BME280;40040;42.706;23.372;2023-05-23T03:58:11;146826.56;;;10.76;100.00
6938;BME280;40040;42.706;23.372;2023-05-23T04:00:38;146820.41;;;10.74;100.00
6938;BME280;40040;42.706;23.372;2023-05-23T04:03:06;146873.44;;;10.95;100.00
6938;BME280;40040;42.706;23.372;2023-05-23T04:05:34;146875.94;;;10.96;100.00
6938;BME280;40040;42.706;23.372;2023-05-23T04:08:01;146878.38;;;10.97;100.00
6938;BME280;40040;42.706;23.372;2023-05-23T04:10:28;146880.84;;;10.98;100.00
6938;BME280;40040;42.706;23.372;2023-05-23T04:12:55;146867.31;;;10.93;100.00
6938;BME280;40040;42.706;23.372;2023-05-23T04:15:21;146863.56;;;10.91;100.00
6938;BME280;40040;42.706;23.372;2023-05-23T04:17:49;146851.22;;;10.86;100.00
6938;BME280;40040;42.706;23.372;2023-05-23T04:20:18;146883.34;;;10.99;100.00
6938;BME280;40040;42.706;23.372;2023-05-23T04:22:45;146875.94;;;10.96;100.00
6938;BME280;40040;42.706;23.372;2023-05-23T04:25:11;146843.84;;;10.83;100.00
6938;BME280;40040;42.706;23.372;2023-05-23T04:27:38;146856.16;;;10.88;100.00
6938;BME280;40040;42.706;23.372;2023-05-23T04:30:06;146866.06;;;10.92;100.00
6938;BME280;40040;42.706;23.372;2023-05-23T04:32:34;146880.84;;;10.98;100.00
6938;BME280;40040;42.706;23.372;2023-05-23T04:35:01;146893.22;;;11.03;100.00
6938;BME280;40040;42.706;23.372;2023-05-23T04:37:30;146898.13;;;11.05;100.00
6938;BME280;40040;42.706;23.372;2023-05-23T04:39:57;146891.97;;;11.03;100.00
6938;BME280;40040;42.706;23.372;2023-05-23T04:42:24;146893.22;;;11.03;100.00
6938;BME280;40040;42.706;23.372;2023-05-23T04:44:51;146917.91;;;11.13;100.00
6938;BME280;40040;42.706;23.372;2023-05-23T04:47:18;146920.34;;;11.14;100.00
6938;BME280;40040;42.706;23.372;2023-05-23T04:49:45;146904.31;;;11.08;100.00
6938;BME280;40040;42.706;23.372;2023-05-23T04:52:12;146915.41;;;11.12;100.00
6938;BME280;40040;42.706;23.372;2023-05-23T04:54:40;146919.16;;;11.14;100.00
6938;BME280;40040;42.706;23.372;2023-05-23T04:57:09;146949.97;;;11.26;100.00
6938;BME280;40040;42.706;23.372;2023-05-23T04:59:37;146953.66;;;11.28;100.00
6938;BME280;40040;42.706;23.372;2023-05-23T05:02:04;146967.25;;;11.33;100.00
6938;BME280;40040;42.706;23.372;2023-05-23T05:04:31;146966.03;;;11.33;100.00
6938;BME280;40040;42.706;23.372;2023-05-23T05:06:58;146982.09;;;11.40;100.00
6938;BME280;40040;42.706;23.372;2023-05-23T05:09:25;146996.88;;;11.46;100.00
6938;BME280;40040;42.706;23.372;2023-05-23T05:11:53;147006.75;;;11.50;100.00
6938;BME280;40040;42.706;23.372;2023-05-23T05:14:20;147024.06;;;11.57;100.00
6938;BME280;40040;42.706;23.372;2023-05-23T05:16:46;147019.09;;;11.55;100.00
6938;BME280;40040;42.706;23.372;2023-05-23T05:19:14;147009.22;;;11.51;100.00
6938;BME280;40040;42.706;23.372;2023-05-23T05:21:41;147031.44;;;11.60;100.00
6938;BME280;40040;42.706;23.372;2023-05-23T05:24:08;147071.00;;;11.76;100.00
6938;BME280;40040;42.706;23.372;2023-05-23T05:26:35;147101.91;;;11.88;100.00
6938;BME280;40040;42.706;23.372;2023-05-23T05:29:03;147079.66;;;11.79;100.00
6938;BME280;40040;42.706;23.372;2023-05-23T05:31:30;147099.41;;;11.87;100.00
6938;BME280;40040;42.706;23.372;2023-05-23T05:33:57;147115.50;;;11.94;100.00
6938;BME280;40040;42.706;23.372;2023-05-23T05:36:24;147161.19;;;12.12;100.00
6938;BME280;40040;42.706;23.372;2023-05-23T05:38:51;147184.66;;;12.22;100.00
6938;BME280;40040;42.706;23.372;2023-05-23T05:41:18;147156.22;;;12.10;100.00
6938;BME280;40040;42.706;23.372;2023-05-23T05:43:46;147172.28;;;12.17;100.00
6938;BME280;40040;42.706;23.372;2023-05-23T05:46:14;147203.16;;;12.29;100.00
6938;BME280;40040;42.706;23.372;2023-05-23T05:48:41;147224.16;;;12.38;100.00
6938;BME280;40040;42.706;23.372;2023-05-23T05:51:08;147241.47;;;12.45;100.00
6938;BME280;40040;42.706;23.372;2023-05-23T05:53:34;147266.22;;;12.55;100.00
6938;BME280;40040;42.706;23.372;2023-05-23T05:56:01;147252.63;;;12.50;100.00
6938;BME280;40040;42.706;23.372;2023-05-23T05:58:28;147263.72;;;12.54;100.00
6938;BME280;40040;42.706;23.372;2023-05-23T06:00:55;147263.72;;;12.54;100.00
6938;BME280;40040;42.706;23.372;2023-05-23T06:03:24;147303.25;;;12.70;100.00
6938;BME280;40040;42.706;23.372;2023-05-23T06:05:51;147337.88;;;12.84;100.00
6938;BME280;40040;42.706;23.372;2023-05-23T06:08:18;147325.53;;;12.79;100.00
6938;BME280;40040;42.706;23.372;2023-05-23T06:10:45;147362.59;;;12.94;100.00
6938;BME280;40040;42.706;23.372;2023-05-23T06:13:11;147400.94;;;13.10;100.00
6938;BME280;40040;42.706;23.372;2023-05-23T06:15:38;147421.94;;;13.18;100.00
6938;BME280;40040;42.706;23.372;2023-05-23T06:18:05;147436.81;;;13.24;100.00
6938;BME280;40040;42.706;23.372;2023-05-23T06:20:33;147476.38;;;13.40;100.00
6938;BME280;40040;42.706;23.372;2023-05-23T06:23:00;147508.50;;;13.53;100.00
6938;BME280;40040;42.706;23.372;2023-05-23T06:25:29;147524.56;;;13.60;100.00
6938;BME280;40040;42.706;23.372;2023-05-23T06:27:56;147558.00;;;13.74;100.00
6938;BME280;40040;42.706;23.372;2023-05-23T06:30:23;147587.69;;;13.86;100.00
6938;BME280;40040;42.706;23.372;2023-05-23T06:32:50;147592.63;;;13.88;100.00
6938;BME280;40040;42.706;23.372;2023-05-23T06:35:17;147654.47;;;14.13;100.00
6938;BME280;40040;42.706;23.372;2023-05-23T06:37:45;147678.00;;;14.22;100.00
6938;BME280;40040;42.706;23.372;2023-05-23T06:40:12;147691.59;;;14.28;100.00
6938;BME280;40040;42.706;23.372;2023-05-23T06:42:39;147699.06;;;14.31;100.00
6938;BME280;40040;42.706;23.372;2023-05-23T06:45:07;147754.75;;;14.53;100.00
6938;BME280;40040;42.706;23.372;2023-05-23T06:47:34;147769.56;;;14.59;100.00
6938;BME280;40040;42.706;23.372;2023-05-23T06:50:01;147785.69;;;14.66;100.00
6938;BME280;40040;42.706;23.372;2023-05-23T06:52:28;147785.69;;;14.66;100.00
6938;BME280;40040;42.706;23.372;2023-05-23T06:54:56;147791.84;;;14.68;100.00
6938;BME280;40040;42.706;23.372;2023-05-23T06:57:22;147809.19;;;14.76;100.00
6938;BME280;40040;42.706;23.372;2023-05-23T06:59:49;147830.22;;;14.84;100.00
6938;BME280;40040;42.706;23.372;2023-05-23T07:02:16;147872.28;;;15.01;100.00
6938;BME280;40040;42.706;23.372;2023-05-23T07:04:43;147854.97;;;14.94;100.00
6938;BME280;40040;42.706;23.372;2023-05-23T07:07:10;147837.63;;;14.87;100.00
6938;BME280;40040;42.706;23.372;2023-05-23T07:09:37;147884.72;;;15.06;100.00
6938;BME280;40040;42.706;23.372;2023-05-23T07:12:06;147867.38;;;14.99;100.00
6938;BME280;40040;42.706;23.372;2023-05-23T07:14:32;147906.97;;;15.15;100.00
6938;BME280;40040;42.706;23.372;2023-05-23T07:17:00;147892.13;;;15.09;100.00
6938;BME280;40040;42.706;23.372;2023-05-23T07:19:26;147914.44;;;15.18;100.00
6938;BME280;40040;42.706;23.372;2023-05-23T07:21:53;147939.19;;;15.28;100.00
6938;BME280;40040;42.706;23.372;2023-05-23T07:24:20;148002.38;;;15.54;100.00
6938;BME280;40040;42.706;23.372;2023-05-23T07:26:47;148068.03;;;15.81;100.00
6938;BME280;40040;42.706;23.372;2023-05-23T07:29:15;148128.72;;;16.05;100.00
6938;BME280;40040;42.706;23.372;2023-05-23T07:31:42;148224.13;;;16.44;100.00
6938;BME280;40040;42.706;23.372;2023-05-23T07:34:08;148291.09;;;16.71;100.00
6938;BME280;40040;42.706;23.372;2023-05-23T07:36:35;148338.19;;;16.90;100.00
6938;BME280;40040;42.706;23.372;2023-05-23T07:39:05;148405.16;;;17.17;100.00
6938;BME280;40040;42.706;23.372;2023-05-23T07:41:32;148483.31;;;17.49;100.00
6938;BME280;40040;42.706;23.372;2023-05-23T07:43:59;148575.09;;;17.86;100.00
6938;BME280;40040;42.706;23.372;2023-05-23T07:46:27;148567.66;;;17.83;100.00
6938;BME280;40040;42.706;23.372;2023-05-23T07:48:54;148586.25;;;17.90;100.00
6938;BME280;40040;42.706;23.372;2023-05-23T07:51:21;148665.66;;;18.23;100.00
6938;BME280;40040;42.706;23.372;2023-05-23T07:53:47;148768.72;;;18.64;100.00
6938;BME280;40040;42.706;23.372;2023-05-23T07:56:14;148869.28;;;19.05;100.00
6938;BME280;40040;42.706;23.372;2023-05-23T07:58:41;148904.06;;;19.19;100.00
6938;BME280;40040;42.706;23.372;2023-05-23T08:01:08;148963.69;;;19.43;100.00
6938;BME280;40040;42.706;23.372;2023-05-23T08:03:36;149013.34;;;19.63;100.00
6938;BME280;40040;42.706;23.372;2023-05-23T08:06:03;149084.16;;;19.92;100.00
6938;BME280;40040;42.706;23.372;2023-05-23T08:08:31;149155.06;;;20.21;100.00
6938;BME280;40040;42.706;23.372;2023-05-23T08:10:58;149212.19;;;20.44;100.00
6938;BME280;40040;42.706;23.372;2023-05-23T08:13:25;149227.13;;;20.50;100.00
6938;BME280;40040;42.706;23.372;2023-05-23T08:15:52;149245.78;;;20.57;100.00
6938;BME280;40040;42.706;23.372;2023-05-23T08:18:18;149249.50;;;20.59;100.00
6938;BME280;40040;42.706;23.372;2023-05-23T08:20:47;149311.63;;;20.84;100.00
6938;BME280;40040;42.706;23.372;2023-05-23T08:23:14;149291.75;;;20.76;100.00
6938;BME280;40040;42.706;23.372;2023-05-23T08:25:42;149346.44;;;20.98;100.00
6938;BME280;40040;42.706;23.372;2023-05-23T08:28:09;149314.13;;;20.85;100.00
6938;BME280;40040;42.706;23.372;2023-05-23T08:30:36;149421.09;;;21.28;100.00
6938;BME280;40040;42.706;23.372;2023-05-23T08:33:02;149525.56;;;21.70;100.00
6938;BME280;40040;42.706;23.372;2023-05-23T08:35:31;149615.16;;;22.06;100.00
6938;BME280;40040;42.706;23.372;2023-05-23T08:38:01;149656.19;;;22.23;100.00
6938;BME280;40040;42.706;23.372;2023-05-23T08:40:30;149742.16;;;22.58;100.00
6938;BME280;40040;42.706;23.372;2023-05-23T08:42:57;149819.31;;;22.89;100.00
6938;BME280;40040;42.706;23.372;2023-05-23T08:45:23;149885.25;;;23.15;100.00
6938;BME280;40040;42.706;23.372;2023-05-23T08:47:51;149928.88;;;23.33;100.00
6938;BME280;40040;42.706;23.372;2023-05-23T08:50:18;150023.53;;;23.71;98.69
6938;BME280;40040;42.706;23.372;2023-05-23T08:52:49;150113.28;;;24.07;93.40
6938;BME280;40040;42.706;23.372;2023-05-23T08:55:23;150109.56;;;24.06;90.92
6938;BME280;40040;42.706;23.372;2023-05-23T08:57:51;150149.41;;;24.22;91.48
6938;BME280;40040;42.706;23.372;2023-05-23T09:00:18;150226.63;;;24.53;92.05
6938;BME280;40040;42.706;23.372;2023-05-23T09:02:46;150360.09;;;25.07;91.39
6938;BME280;40040;42.706;23.372;2023-05-23T09:05:13;150419.91;;;25.31;87.48
6938;BME280;40040;42.706;23.372;2023-05-23T09:07:40;150429.91;;;25.35;85.14
6938;BME280;40040;42.706;23.372;2023-05-23T09:10:08;150325.19;;;24.93;81.13
6938;BME280;40040;42.706;23.372;2023-05-23T09:12:37;150301.47;;;24.83;83.91
6938;BME280;40040;42.706;23.372;2023-05-23T09:15:04;150292.75;;;24.80;83.27
6938;BME280;40040;42.706;23.372;2023-05-23T09:17:32;150326.38;;;24.93;81.62
6938;BME280;40040;42.706;23.372;2023-05-23T09:19:59;150449.88;;;25.43;82.21
6938;BME280;40040;42.706;23.372;2023-05-23T09:22:26;150459.88;;;25.47;83.54
6938;BME280;40040;42.706;23.372;2023-05-23T09:24:54;150397.47;;;25.22;78.11
6938;BME280;40040;42.706;23.372;2023-05-23T09:27:21;150287.75;;;24.78;81.59
6938;BME280;40040;42.706;23.372;2023-05-23T09:29:50;150236.63;;;24.57;84.96
6938;BME280;40040;42.706;23.372;2023-05-23T09:32:18;150245.34;;;24.61;83.12
6938;BME280;40040;42.706;23.372;2023-05-23T09:34:55;150256.59;;;24.65;80.55
6938;BME280;40040;42.706;23.372;2023-05-23T09:37:28;150352.56;;;25.04;81.98
6938;BME280;40040;42.706;23.372;2023-05-23T09:39:56;150292.75;;;24.80;76.62
6938;BME280;40040;42.706;23.372;2023-05-23T09:42:23;150171.81;;;24.31;76.90
6938;BME280;40040;42.706;23.372;2023-05-23T09:44:52;150237.88;;;24.58;74.06
6938;BME280;40040;42.706;23.372;2023-05-23T09:47:19;150174.34;;;24.32;70.02
6938;BME280;40040;42.706;23.372;2023-05-23T09:49:46;150174.34;;;24.32;71.36
6938;BME280;40040;42.706;23.372;2023-05-23T09:52:13;150183.06;;;24.35;71.97
6938;BME280;40040;42.706;23.372;2023-05-23T09:54:40;150301.47;;;24.83;76.04
6938;BME280;40040;42.706;23.372;2023-05-23T09:57:09;150382.47;;;25.16;71.73
6938;BME280;40040;42.706;23.372;2023-05-23T09:59:38;150479.81;;;25.55;71.47
6938;BME280;40040;42.706;23.372;2023-05-23T10:02:10;150499.72;;;25.63;67.06
6938;BME280;40040;42.706;23.372;2023-05-23T10:04:38;150494.78;;;25.61;66.00
6938;BME280;40040;42.706;23.372;2023-05-23T10:07:13;150515.97;;;25.70;63.83
6938;BME280;40040;42.706;23.372;2023-05-23T10:09:46;150433.69;;;25.36;63.21
6938;BME280;40040;42.706;23.372;2023-05-23T10:12:39;150464.81;;;25.49;63.24
6938;BME280;40040;42.706;23.372;2023-05-23T10:15:08;150504.72;;;25.65;65.30
6938;BME280;40040;42.706;23.372;2023-05-23T10:17:56;150539.66;;;25.79;63.75
6938;BME280;40040;42.706;23.372;2023-05-23T10:20:29;150457.34;;;25.46;58.82
6938;BME280;40040;42.706;23.372;2023-05-23T10:22:58;150494.78;;;25.61;59.61
6938;BME280;40040;42.706;23.372;2023-05-23T10:25:25;150574.56;;;25.93;61.98
6938;BME280;40040;42.706;23.372;2023-05-23T10:27:55;150650.75;;;26.24;58.82
6938;BME280;40040;42.706;23.372;2023-05-23T10:30:25;150660.69;;;26.28;57.90
6938;BME280;40040;42.706;23.372;2023-05-23T10:32:53;150564.59;;;25.89;57.47
6938;BME280;40040;42.706;23.372;2023-05-23T10:35:28;150689.41;;;26.39;56.89
6938;BME280;40040;42.706;23.372;2023-05-23T10:38:00;150568.38;;;25.91;57.46
6938;BME280;40040;42.706;23.372;2023-05-23T10:40:36;150549.66;;;25.83;59.10
6938;BME280;40040;42.706;23.372;2023-05-23T10:43:15;150525.94;;;25.74;56.33
6938;BME280;40040;42.706;23.372;2023-05-23T10:45:46;150602.06;;;26.04;54.29
6938;BME280;40040;42.706;23.372;2023-05-23T10:48:20;150734.28;;;26.57;53.97
6938;BME280;40040;42.706;23.372;2023-05-23T10:51:03;150705.63;;;26.46;55.76
6938;BME280;40040;42.706;23.372;2023-05-23T10:53:33;150694.34;;;26.41;55.41
6938;BME280;40040;42.706;23.372;2023-05-23T10:56:01;150614.56;;;26.09;55.55
6938;BME280;40040;42.706;23.372;2023-05-23T10:58:31;150554.63;;;25.85;53.24
6938;BME280;40040;42.706;23.372;2023-05-23T11:01:00;150487.28;;;25.58;55.53
6938;BME280;40040;42.706;23.372;2023-05-23T11:03:33;150509.72;;;25.67;55.38
6938;BME280;40040;42.706;23.372;2023-05-23T11:06:00;150442.41;;;25.40;55.75
6938;BME280;40040;42.706;23.372;2023-05-23T11:08:35;150527.19;;;25.74;56.34
6938;BME280;40040;42.706;23.372;2023-05-23T11:11:03;150484.78;;;25.57;54.74
6938;BME280;40040;42.706;23.372;2023-05-23T11:13:53;150452.34;;;25.44;55.72
6938;BME280;40040;42.706;23.372;2023-05-23T11:16:24;150406.19;;;25.25;54.24
6938;BME280;40040;42.706;23.372;2023-05-23T11:21:38;150494.78;;;25.61;54.58
6938;BME280;40040;42.706;23.372;2023-05-23T11:24:08;150514.72;;;25.69;53.85
6938;BME280;40040;42.706;23.372;2023-05-23T11:26:35;150539.66;;;25.79;56.30
6938;BME280;40040;42.706;23.372;2023-05-23T11:29:01;150573.31;;;25.93;52.63
6938;BME280;40040;42.706;23.372;2023-05-23T11:31:28;150570.84;;;25.92;51.72
6938;BME280;40040;42.706;23.372;2023-05-23T11:33:57;150683.16;;;26.37;52.61
6938;BME280;40040;42.706;23.372;2023-05-23T11:36:24;150730.56;;;26.56;52.36
6938;BME280;40040;42.706;23.372;2023-05-23T11:38:54;150681.88;;;26.36;51.70
6938;BME280;40040;42.706;23.372;2023-05-23T11:41:21;150646.97;;;26.22;51.58
6938;BME280;40040;42.706;23.372;2023-05-23T11:43:49;150579.56;;;25.95;52.21
6938;BME280;40040;42.706;23.372;2023-05-23T11:46:16;150579.56;;;25.95;52.90
6938;BME280;40040;42.706;23.372;2023-05-23T11:48:44;150549.66;;;25.83;53.64
6938;BME280;40040;42.706;23.372;2023-05-23T11:51:13;150492.25;;;25.60;54.88
6938;BME280;40040;42.706;23.372;2023-05-23T11:53:40;150479.81;;;25.55;54.95
6938;BME280;40040;42.706;23.372;2023-05-23T11:56:07;150454.88;;;25.45;54.13
6938;BME280;40040;42.706;23.372;2023-05-23T11:58:35;150452.34;;;25.44;52.70
6938;BME280;40040;42.706;23.372;2023-05-23T12:01:03;150504.72;;;25.65;50.80
6938;BME280;40040;42.706;23.372;2023-05-23T12:03:31;150559.63;;;25.87;50.95
6938;BME280;40040;42.706;23.372;2023-05-23T12:05:58;150524.72;;;25.73;49.21
6938;BME280;40040;42.706;23.372;2023-05-23T12:08:26;150504.72;;;25.65;49.77
6938;BME280;40040;42.706;23.372;2023-05-23T12:10:56;150524.72;;;25.73;50.08
6938;BME280;40040;42.706;23.372;2023-05-23T12:13:23;150555.84;;;25.86;50.04
6938;BME280;40040;42.706;23.372;2023-05-23T12:15:53;150552.13;;;25.84;51.86
6938;BME280;40040;42.706;23.372;2023-05-23T12:18:20;150524.72;;;25.73;50.35
6938;BME280;40040;42.706;23.372;2023-05-23T12:20:47;150514.72;;;25.69;51.10
6938;BME280;40040;42.706;23.372;2023-05-23T12:23:18;150459.88;;;25.47;51.96
6938;BME280;40040;42.706;23.372;2023-05-23T12:25:50;150427.38;;;25.34;53.40
6938;BME280;40040;42.706;23.372;2023-05-23T12:28:17;150393.72;;;25.20;49.38
6938;BME280;40040;42.706;23.372;2023-05-23T12:30:45;150390.00;;;25.19;49.45
6938;BME280;40040;42.706;23.372;2023-05-23T12:33:13;150398.72;;;25.22;50.07
6938;BME280;40040;42.706;23.372;2023-05-23T12:35:42;150392.47;;;25.20;46.83
6938;BME280;40040;42.706;23.372;2023-05-23T12:38:09;150380.00;;;25.15;45.70
6938;BME280;40040;42.706;23.372;2023-05-23T12:40:36;150330.16;;;24.95;47.35
6938;BME280;40040;42.706;23.372;2023-05-23T12:43:08;150301.47;;;24.83;46.01
6938;BME280;40040;42.706;23.372;2023-05-23T12:45:35;150317.66;;;24.90;48.68
6938;BME280;40040;42.706;23.372;2023-05-23T12:48:02;150342.63;;;25.00;49.69
6938;BME280;40040;42.706;23.372;2023-05-23T12:50:29;150330.16;;;24.95;48.27
6938;BME280;40040;42.706;23.372;2023-05-23T12:52:56;150327.66;;;24.94;49.40